Time;durP1;ratioP1;P1;durP2;ratioP2;P2;SDS_P1;SDS_P2;PMS_P1;PMS_P2;Temp;Humidity;BMP_temperature;BMP_pressure;BME280_temperature;BME280_humidity;BME280_pressure;Samples;Min_cycle;Max_cycle;Signal;HPM_P1;HPM_P2
2024/04/15 00:00:42;;;;;;;7.20;2.57;;;12.60;1.00;;;;;;5450054;26;20265;-83
2024/04/15 00:03:08;;;;;;;9.90;3.13;;;12.50;1.00;;;;;;5450924;26;20318;-85
2024/04/15 00:05:34;;;;;;;9.27;2.70;;;12.40;2.90;;;;;;5449408;26;20214;-82
2024/04/15 00:07:59;;;;;;;8.33;2.50;;;12.20;6.40;;;;;;5460074;26;20272;-82
2024/04/15 00:10:26;;;;;;;9.87;2.80;;;12.20;10.40;;;;;;5450093;26;20893;-84
2024/04/15 00:12:51;;;;;;;9.30;2.43;;;12.20;10.50;;;;;;5449904;26;20397;-84
2024/04/15 00:15:17;;;;;;;8.27;2.50;;;12.20;11.60;;;;;;5450517;26;20320;-83
2024/04/15 00:17:43;;;;;;;7.37;3.03;;;12.20;13.00;;;;;;5451032;26;20268;-83
2024/04/15 00:20:09;;;;;;;7.13;2.83;;;12.20;13.00;;;;;;5449844;26;20214;-83
2024/04/15 00:22:35;;;;;;;6.57;2.37;;;12.00;15.60;;;;;;5477937;26;20255;-83
2024/04/15 00:25:01;;;;;;;6.93;3.00;;;12.00;14.50;;;;;;5484299;26;20232;-82
2024/04/15 00:27:27;;;;;;;8.80;2.80;;;12.00;12.80;;;;;;5487906;26;20690;-83
2024/04/15 00:29:52;;;;;;;8.50;2.60;;;11.90;11.70;;;;;;5487625;26;20694;-84
2024/04/15 00:32:18;;;;;;;5.97;2.20;;;11.90;13.20;;;;;;5474812;26;20713;-84
2024/04/15 00:34:44;;;;;;;8.20;2.80;;;11.90;11.00;;;;;;5451499;26;20701;-82
2024/04/15 00:37:09;;;;;;;7.67;2.53;;;12.00;9.60;;;;;;5449065;26;20229;-83
2024/04/15 00:39:36;;;;;;;11.43;3.00;;;11.90;9.40;;;;;;5451006;26;20678;-83
2024/04/15 00:42:01;;;;;;;7.80;2.70;;;11.80;12.10;;;;;;5449623;26;20233;-83
2024/04/15 00:44:34;;;;;;;7.37;2.43;;;11.80;11.00;;;;;;5451130;26;20275;-82
2024/04/15 00:47:01;;;;;;;8.47;2.77;;;11.80;9.70;;;;;;5449816;26;20717;-82
2024/04/15 00:49:28;;;;;;;9.07;3.07;;;11.80;10.30;;;;;;5451515;26;20218;-84
2024/04/15 00:51:54;;;;;;;5.13;2.20;;;11.70;12.70;;;;;;5450783;26;20235;-83
2024/04/15 00:54:19;;;;;;;7.87;2.60;;;11.80;12.60;;;;;;5449768;26;20321;-84
2024/04/15 00:56:45;;;;;;;6.80;2.63;;;11.80;11.40;;;;;;5449273;26;20221;-83
2024/04/15 00:59:11;;;;;;;9.30;2.87;;;11.80;10.40;;;;;;5448785;26;20217;-83
2024/04/15 01:01:38;;;;;;;7.47;2.50;;;11.70;9.40;;;;;;5450742;26;20578;-82
2024/04/15 01:04:04;;;;;;;7.73;2.67;;;11.60;8.90;;;;;;5451931;26;20240;-83
2024/04/15 01:06:30;;;;;;;6.90;2.43;;;11.50;10.40;;;;;;5453448;26;20213;-83
2024/04/15 01:08:55;;;;;;;6.50;2.70;;;11.40;13.80;;;;;;5470133;26;20263;-83
2024/04/15 01:11:21;;;;;;;7.77;2.70;;;11.40;15.50;;;;;;5490593;26;20593;-83
2024/04/15 01:13:47;;;;;;;7.97;2.40;;;11.30;17.30;;;;;;5488229;26;20267;-84
2024/04/15 01:16:12;;;;;;;9.03;2.60;;;11.20;18.50;;;;;;5490188;26;20212;-83
2024/04/15 01:18:38;;;;;;;6.77;2.53;;;11.20;19.10;;;;;;5479669;26;20588;-83
2024/04/15 01:21:05;;;;;;;6.70;2.90;;;11.20;19.90;;;;;;5453785;26;20213;-83
2024/04/15 01:23:34;;;;;;;8.97;2.93;;;11.10;21.70;;;;;;5452720;26;20217;-83
2024/04/15 01:26:00;;;;;;;8.80;2.70;;;11.10;24.10;;;;;;5452533;26;20225;-83
2024/04/15 01:28:26;;;;;;;7.53;2.43;;;11.10;25.50;;;;;;5459079;26;20225;-82
2024/04/15 01:30:52;;;;;;;8.17;3.20;;;11.10;23.90;;;;;;5489719;26;20270;-83
2024/04/15 01:33:17;;;;;;;7.90;2.47;;;11.20;19.60;;;;;;5490244;26;20225;-83
2024/04/15 01:35:43;;;;;;;7.70;2.77;;;11.20;18.20;;;;;;5489725;26;20221;-84
2024/04/15 01:38:09;;;;;;;8.77;2.27;;;11.20;15.90;;;;;;5489566;26;20690;-85
2024/04/15 01:40:34;;;;;;;5.67;2.27;;;11.10;18.10;;;;;;5487629;26;20224;-84
2024/04/15 01:43:00;;;;;;;8.27;2.40;;;11.00;21.40;;;;;;5487376;26;20236;-83
2024/04/15 01:45:25;;;;;;;4.87;1.67;;;10.80;22.60;;;;;;5490133;26;20263;-84
2024/04/15 01:47:51;;;;;;;6.20;2.10;;;10.70;22.30;;;;;;5486123;26;20731;-84
2024/04/15 01:50:20;;;;;;;7.13;2.10;;;10.70;23.20;;;;;;5461150;26;20337;-84
2024/04/15 01:52:45;;;;;;;5.87;2.30;;;10.70;21.70;;;;;;5453948;26;20214;-84
2024/04/15 01:55:11;;;;;;;11.07;2.63;;;10.70;22.80;;;;;;5451443;26;20309;-83
2024/04/15 01:57:37;;;;;;;5.30;2.10;;;10.50;23.70;;;;;;5451456;26;20367;-83
2024/04/15 02:00:04;;;;;;;4.80;1.60;;;10.40;25.20;;;;;;5477905;26;20719;-84
2024/04/15 02:02:30;;;;;;;6.60;1.90;;;10.40;27.40;;;;;;5486921;26;20689;-82
2024/04/15 02:04:55;;;;;;;6.97;2.30;;;10.40;28.10;;;;;;5489803;26;20217;-83
2024/04/15 02:07:21;;;;;;;4.67;2.13;;;10.40;28.40;;;;;;5487149;26;20228;-83
2024/04/15 02:09:47;;;;;;;3.80;1.83;;;10.40;25.20;;;;;;5479107;26;20929;-84
2024/04/15 02:12:12;;;;;;;6.63;2.13;;;10.50;22.60;;;;;;5452932;26;20277;-82
2024/04/15 02:14:38;;;;;;;7.23;2.10;;;10.50;20.80;;;;;;5451969;26;20794;-83
2024/04/15 02:17:04;;;;;;;4.27;1.97;;;10.40;21.60;;;;;;5449996;26;20225;-83
2024/04/15 02:19:31;;;;;;;6.77;2.00;;;10.20;25.70;;;;;;5467661;26;20240;-84
2024/04/15 02:21:57;;;;;;;7.63;1.93;;;10.30;27.60;;;;;;5466388;26;20362;-83
2024/04/15 02:24:23;;;;;;;5.17;1.80;;;10.20;28.90;;;;;;5453134;26;20630;-83
2024/04/15 02:26:49;;;;;;;7.00;2.33;;;10.10;31.20;;;;;;5452564;26;20226;-84
2024/04/15 02:29:15;;;;;;;6.17;1.80;;;10.10;32.30;;;;;;5454050;26;20229;-83
2024/04/15 02:31:41;;;;;;;6.07;2.23;;;10.10;31.00;;;;;;5470281;26;20237;-82
2024/04/15 02:34:06;;;;;;;4.83;2.30;;;10.00;34.70;;;;;;5450300;26;20715;-82
2024/04/15 02:36:32;;;;;;;7.43;2.20;;;10.00;37.50;;;;;;5453381;26;20215;-83
2024/04/15 02:38:57;;;;;;;10.30;2.60;;;9.90;39.80;;;;;;5454542;26;20218;-83
2024/04/15 02:41:23;;;;;;;5.50;1.70;;;9.90;42.50;;;;;;5453101;26;20684;-83
2024/04/15 02:43:49;;;;;;;8.07;2.57;;;9.90;42.10;;;;;;5452866;26;20321;-83
2024/04/15 02:46:16;;;;;;;5.37;1.83;;;9.80;45.40;;;;;;5451043;26;20229;-83
2024/04/15 02:48:42;;;;;;;6.63;2.10;;;9.80;46.90;;;;;;5453032;26;20260;-83
2024/04/15 02:51:08;;;;;;;4.60;1.77;;;9.90;46.90;;;;;;5481395;26;20225;-85
2024/04/15 02:53:34;;;;;;;8.03;2.17;;;9.80;51.40;;;;;;5487975;26;20280;-83
2024/04/15 02:56:00;;;;;;;7.67;2.60;;;9.70;54.50;;;;;;5486274;26;20657;-82
2024/04/15 02:58:26;;;;;;;9.10;2.53;;;9.70;55.30;;;;;;5467068;26;20766;-83
2024/04/15 03:00:52;;;;;;;10.70;2.07;;;9.70;56.70;;;;;;5453362;26;20272;-83
2024/04/15 03:03:17;;;;;;;5.67;2.13;;;9.70;57.70;;;;;;5452598;26;20229;-84
2024/04/15 03:05:46;;;;;;;7.37;2.10;;;9.60;61.00;;;;;;5450626;26;20225;-83
2024/04/15 03:08:12;;;;;;;9.13;2.17;;;9.70;61.90;;;;;;5463409;26;20336;-83
2024/04/15 03:10:38;;;;;;;10.77;2.40;;;9.60;66.30;;;;;;5488366;26;20243;-83
2024/04/15 03:13:04;;;;;;;7.10;2.50;;;9.60;67.60;;;;;;5487793;26;20336;-83
2024/04/15 03:15:31;;;;;;;7.37;2.20;;;9.60;71.20;;;;;;5488389;26;20263;-83
2024/04/15 03:17:57;;;;;;;6.67;2.50;;;9.60;71.40;;;;;;5480133;26;20241;-82
2024/04/15 03:20:27;;;;;;;7.93;2.40;;;9.60;74.60;;;;;;5450530;26;20313;-83
2024/04/15 03:22:53;;;;;;;7.67;2.77;;;9.50;77.50;;;;;;5451746;26;20285;-82
2024/04/15 03:25:19;;;;;;;7.53;2.50;;;9.60;77.90;;;;;;5448651;26;20558;-84
2024/04/15 03:27:46;;;;;;;7.00;2.20;;;9.60;79.50;;;;;;5453384;26;20628;-85
2024/04/15 03:30:12;;;;;;;8.60;2.40;;;9.60;82.10;;;;;;5486618;26;20216;-83
2024/04/15 03:32:38;;;;;;;11.33;2.67;;;9.60;82.80;;;;;;5487075;26;20231;-84
2024/04/15 03:35:05;;;;;;;9.93;2.67;;;9.60;83.60;;;;;;5486993;26;20541;-83
2024/04/15 03:37:30;;;;;;;7.67;2.37;;;9.60;85.50;;;;;;5486461;26;20767;-83
2024/04/15 03:39:56;;;;;;;10.93;2.83;;;9.60;82.70;;;;;;5452286;26;20237;-83
2024/04/15 03:42:21;;;;;;;9.60;2.47;;;9.50;85.00;;;;;;5450997;26;20550;-91
2024/04/15 03:44:52;;;;;;;7.93;2.70;;;9.50;90.30;;;;;;5471333;26;20735;-82
2024/04/15 03:47:18;;;;;;;9.50;2.60;;;9.40;92.10;;;;;;5450432;26;20233;-83
2024/04/15 03:49:44;;;;;;;9.37;2.67;;;9.50;93.00;;;;;;5448975;26;20217;-84
2024/04/15 03:52:10;;;;;;;9.60;3.73;;;9.60;92.70;;;;;;5451983;26;20299;-84
2024/04/15 03:54:36;;;;;;;9.53;2.83;;;9.60;92.80;;;;;;5448940;26;20248;-84
2024/04/15 03:57:02;;;;;;;8.40;2.80;;;9.60;92.70;;;;;;5477076;26;20266;-82
2024/04/15 03:59:27;;;;;;;6.70;2.90;;;9.50;93.60;;;;;;5486537;26;20227;-83
2024/04/15 04:01:53;;;;;;;11.10;2.90;;;9.50;95.40;;;;;;5486532;26;20247;-85
2024/04/15 04:04:18;;;;;;;13.60;3.37;;;9.40;97.10;;;;;;5488218;26;20216;-83
2024/04/15 04:06:44;;;;;;;9.60;3.03;;;9.40;98.10;;;;;;5484086;26;20635;-88
2024/04/15 04:09:10;;;;;;;10.77;2.80;;;9.30;99.90;;;;;;5486816;26;20697;-83
2024/04/15 04:11:35;;;;;;;10.93;3.00;;;9.30;99.90;;;;;;5485143;26;20224;-84
2024/04/15 04:14:01;;;;;;;9.67;2.87;;;9.40;99.90;;;;;;5485567;26;20598;-83
2024/04/15 04:16:26;;;;;;;10.27;2.97;;;9.30;99.90;;;;;;5477687;26;20555;-83
2024/04/15 04:18:52;;;;;;;9.63;2.93;;;9.30;99.90;;;;;;5449343;26;20570;-82
2024/04/15 04:21:18;;;;;;;6.90;2.87;;;9.40;99.90;;;;;;5448721;26;20658;-84
2024/04/15 04:23:44;;;;;;;11.23;2.80;;;9.30;99.90;;;;;;5453436;26;20280;-84
2024/04/15 04:26:09;;;;;;;9.13;2.90;;;9.40;99.90;;;;;;5449319;26;20757;-83
2024/04/15 04:28:35;;;;;;;10.67;3.03;;;9.40;99.90;;;;;;5449191;26;20310;-83
2024/04/15 04:31:02;;;;;;;8.60;3.20;;;9.30;99.90;;;;;;5447555;26;20221;-83
2024/04/15 04:33:29;;;;;;;11.73;3.40;;;9.20;99.90;;;;;;5463065;26;20232;-83
2024/04/15 04:35:55;;;;;;;13.60;3.50;;;9.10;99.90;;;;;;5485350;26;20224;-84
2024/04/15 04:38:21;;;;;;;9.63;3.07;;;9.10;99.90;;;;;;5489384;26;20293;-83
2024/04/15 04:40:54;;;;;;;13.10;3.87;;;9.20;99.90;;;;;;5488974;26;20308;-83
2024/04/15 04:43:20;;;;;;;9.43;3.23;;;9.20;99.90;;;;;;5480628;26;20267;-83
2024/04/15 04:45:45;;;;;;;8.70;3.50;;;9.30;99.90;;;;;;5454505;26;20554;-83
2024/04/15 04:48:11;;;;;;;9.60;3.50;;;9.30;99.90;;;;;;5451895;26;20714;-84
2024/04/15 04:50:37;;;;;;;13.03;3.93;;;9.30;99.90;;;;;;5450645;26;20309;-83
2024/04/15 04:53:03;;;;;;;9.27;3.30;;;9.30;99.90;;;;;;5459559;26;20608;-83
2024/04/15 04:55:28;;;;;;;8.63;3.30;;;9.20;99.90;;;;;;5488766;26;20777;-83
2024/04/15 04:57:54;;;;;;;8.90;3.10;;;9.10;99.90;;;;;;5489815;26;20332;-83
2024/04/15 05:00:20;;;;;;;12.73;3.50;;;9.10;99.90;;;;;;5480961;26;20716;-84
2024/04/15 05:02:46;;;;;;;9.07;3.03;;;9.20;99.90;;;;;;5451961;26;20545;-84
2024/04/15 05:05:12;;;;;;;12.10;4.07;;;9.10;99.90;;;;;;5451990;26;20217;-83
2024/04/15 05:07:37;;;;;;;16.67;3.80;;;9.20;99.90;;;;;;5452549;26;20256;-83
2024/04/15 05:10:03;;;;;;;13.63;3.20;;;9.10;99.90;;;;;;5457959;26;20236;-83
2024/04/15 05:12:29;;;;;;;11.10;3.67;;;9.10;99.90;;;;;;5490401;26;20250;-83
2024/04/15 05:14:55;;;;;;;8.43;3.30;;;9.10;99.90;;;;;;5488884;26;20228;-82
2024/04/15 05:17:20;;;;;;;11.97;3.30;;;9.20;99.90;;;;;;5487177;26;20247;-84
2024/04/15 05:19:46;;;;;;;8.27;3.57;;;9.10;99.90;;;;;;5489977;26;20739;-82
2024/04/15 05:22:13;;;;;;;14.93;4.03;;;9.10;99.90;;;;;;5487225;26;20228;-84
2024/04/15 05:24:38;;;;;;;8.77;3.60;;;9.20;99.90;;;;;;5488706;26;20661;-83
2024/04/15 05:27:04;;;;;;;15.70;3.90;;;9.10;99.90;;;;;;5487894;26;20243;-83
2024/04/15 05:29:30;;;;;;;13.43;3.47;;;9.20;99.90;;;;;;5490145;26;20685;-82
2024/04/15 05:31:55;;;;;;;13.93;4.30;;;9.20;99.90;;;;;;5480412;26;20233;-84
2024/04/15 05:34:21;;;;;;;15.43;3.80;;;9.20;99.90;;;;;;5451804;26;20273;-84
2024/04/15 05:36:47;;;;;;;11.17;3.80;;;9.10;99.90;;;;;;5452684;26;20361;-83
2024/04/15 05:39:13;;;;;;;10.63;3.80;;;9.10;99.90;;;;;;5453747;26;20256;-84
2024/04/15 05:41:38;;;;;;;13.97;4.37;;;9.10;99.90;;;;;;5481882;26;20224;-85
2024/04/15 05:44:06;;;;;;;7.80;3.63;;;9.20;99.90;;;;;;5493783;26;20680;-83
2024/04/15 05:46:31;;;;;;;12.90;4.03;;;9.20;99.90;;;;;;5492214;26;20272;-82
2024/04/15 05:48:57;;;;;;;13.07;3.77;;;9.30;99.90;;;;;;5458345;26;20284;-83
2024/04/15 05:51:23;;;;;;;11.90;3.63;;;9.40;99.90;;;;;;5455813;26;20678;-84
2024/04/15 05:53:48;;;;;;;13.13;4.40;;;9.40;99.90;;;;;;5486731;26;20669;-85
2024/04/15 05:56:14;;;;;;;11.40;4.37;;;9.40;99.90;;;;;;5486308;26;20304;-85
2024/04/15 05:58:40;;;;;;;13.73;4.30;;;9.30;99.90;;;;;;5486287;26;20251;-83
2024/04/15 06:01:06;;;;;;;12.63;4.27;;;9.40;99.90;;;;;;5488515;26;20228;-85
2024/04/15 06:03:31;;;;;;;14.63;4.30;;;9.40;99.90;;;;;;5487328;26;20618;-90
2024/04/15 06:05:57;;;;;;;16.93;4.40;;;9.40;99.90;;;;;;5488558;26;20220;-85
2024/04/15 06:08:23;;;;;;;14.50;3.90;;;9.40;99.90;;;;;;5479805;26;20756;-84
2024/04/15 06:10:49;;;;;;;11.20;3.60;;;9.50;99.90;;;;;;5450500;26;20213;-80
2024/04/15 06:13:14;;;;;;;13.17;4.47;;;9.50;99.90;;;;;;5449998;26;20268;-88
2024/04/15 06:15:40;;;;;;;16.20;5.03;;;9.50;99.90;;;;;;5449411;26;20306;-83
2024/04/15 06:18:06;;;;;;;19.93;4.87;;;9.50;99.90;;;;;;5463797;26;20264;-83
2024/04/15 06:20:32;;;;;;;14.63;5.03;;;9.50;99.90;;;;;;5449093;26;20226;-83
2024/04/15 06:22:58;;;;;;;14.50;4.33;;;9.60;99.90;;;;;;5450490;26;20213;-83
2024/04/15 06:25:24;;;;;;;15.67;5.27;;;9.60;99.90;;;;;;5450065;26;20244;-83
2024/04/15 06:27:49;;;;;;;12.77;4.30;;;9.80;99.90;;;;;;5448852;26;20709;-84
2024/04/15 06:30:15;;;;;;;12.07;4.70;;;9.80;99.90;;;;;;5449864;26;20690;-84
2024/04/15 06:32:40;;;;;;;13.67;5.30;;;9.90;99.90;;;;;;5450773;26;20551;-83
2024/04/15 06:35:06;;;;;;;19.57;5.93;;;9.90;99.90;;;;;;5455475;26;22303;-84
2024/04/15 06:37:32;;;;;;;13.43;5.07;;;10.10;99.90;;;;;;5488172;26;20684;-84
2024/04/15 06:39:57;;;;;;;16.67;5.33;;;10.20;99.90;;;;;;5488247;26;20530;-86
2024/04/15 06:42:24;;;;;;;13.23;4.50;;;10.20;99.90;;;;;;5486283;26;20232;-84
2024/04/15 06:44:49;;;;;;;19.83;5.20;;;10.20;99.90;;;;;;5486238;26;20221;-83
2024/04/15 06:47:15;;;;;;;13.97;5.30;;;10.30;99.90;;;;;;5453111;26;20272;-82
2024/04/15 06:49:41;;;;;;;10.27;4.10;;;10.40;99.90;;;;;;5449777;26;20221;-85
2024/04/15 06:52:07;;;;;;;13.53;4.40;;;10.50;99.90;;;;;;5450331;26;20225;-83
2024/04/15 06:54:32;;;;;;;13.97;4.43;;;10.40;99.90;;;;;;5450672;26;20265;-83
2024/04/15 06:56:59;;;;;;;12.83;4.67;;;10.50;99.90;;;;;;5480977;26;20594;-83
2024/04/15 06:59:25;;;;;;;11.90;3.43;;;10.50;99.90;;;;;;5487870;26;20304;-84
2024/04/15 07:01:50;;;;;;;17.00;4.47;;;10.50;99.90;;;;;;5471739;26;20650;-85
2024/04/15 07:04:16;;;;;;;14.03;4.40;;;10.50;99.90;;;;;;5452134;26;20613;-82
2024/04/15 07:06:42;;;;;;;10.30;3.80;;;10.50;99.90;;;;;;5477253;26;20224;-82
2024/04/15 07:09:08;;;;;;;9.50;3.87;;;10.60;99.90;;;;;;5450983;26;20216;-83
2024/04/15 07:11:34;;;;;;;11.23;4.13;;;10.60;99.00;;;;;;5483103;26;20263;-83
2024/04/15 07:14:00;;;;;;;16.07;4.37;;;10.70;96.70;;;;;;5485656;26;20275;-84
2024/04/15 07:16:26;;;;;;;9.07;3.50;;;10.70;95.70;;;;;;5488152;26;20228;-82
2024/04/15 07:18:51;;;;;;;12.10;3.57;;;10.80;95.80;;;;;;5487885;26;20262;-83
2024/04/15 07:21:17;;;;;;;12.33;3.70;;;10.90;93.20;;;;;;5487462;26;20577;-84
2024/04/15 07:23:45;;;;;;;7.57;3.07;;;11.10;90.30;;;;;;5487485;26;20217;-83
2024/04/15 07:26:11;;;;;;;12.83;3.60;;;11.20;82.80;;;;;;5487982;26;20213;-84
2024/04/15 07:28:37;;;;;;;12.03;3.47;;;11.30;74.60;;;;;;5485750;26;20250;-84
2024/04/15 07:31:04;;;;;;;8.33;2.93;;;11.40;69.30;;;;;;5487690;26;20264;-83
2024/04/15 07:33:30;;;;;;;11.17;3.10;;;11.50;62.00;;;;;;5486083;26;20587;-83
2024/04/15 07:35:57;;;;;;;10.60;3.13;;;11.60;56.10;;;;;;5487879;26;20328;-82
2024/04/15 07:38:23;;;;;;;8.27;2.70;;;11.60;59.80;;;;;;5487601;26;20217;-83
2024/04/15 07:40:49;;;;;;;14.37;4.03;;;11.70;54.10;;;;;;5486447;26;20651;-83
2024/04/15 07:43:15;;;;;;;7.67;3.00;;;11.60;56.50;;;;;;5488414;26;20216;-83
2024/04/15 07:45:41;;;;;;;13.53;3.23;;;11.70;60.00;;;;;;5487686;26;20251;-82
2024/04/15 07:48:07;;;;;;;12.07;3.57;;;11.80;55.50;;;;;;5486011;26;20252;-82
2024/04/15 07:50:33;;;;;;;9.30;2.90;;;11.80;52.40;;;;;;5487639;26;20247;-83
2024/04/15 07:52:59;;;;;;;10.33;3.30;;;11.70;51.00;;;;;;5486311;26;20232;-82
2024/04/15 07:55:25;;;;;;;14.57;3.67;;;11.70;51.40;;;;;;5487371;26;20285;-83
2024/04/15 07:57:50;;;;;;;9.93;2.63;;;11.90;48.70;;;;;;5485845;26;20532;-84
2024/04/15 08:00:17;;;;;;;8.07;2.53;;;12.00;40.30;;;;;;5487740;26;20548;-82
2024/04/15 08:02:43;;;;;;;9.27;3.03;;;12.00;37.30;;;;;;5486183;26;20224;-83
2024/04/15 08:05:09;;;;;;;9.80;2.93;;;12.00;36.60;;;;;;5486479;26;20214;-84
2024/04/15 08:07:35;;;;;;;9.10;2.80;;;12.00;36.10;;;;;;5485244;26;20253;-82
2024/04/15 08:10:01;;;;;;;8.00;2.30;;;12.10;34.10;;;;;;5487439;26;20218;-83
2024/04/15 08:12:27;;;;;;;8.53;2.50;;;12.10;27.20;;;;;;5487353;26;20688;-83
2024/04/15 08:14:53;;;;;;;10.50;2.60;;;12.20;21.10;;;;;;5490312;26;20248;-84
2024/04/15 08:17:18;;;;;;;7.97;2.50;;;12.40;19.40;;;;;;5492076;26;20644;-83
2024/04/15 08:19:45;;;;;;;13.80;3.07;;;12.50;13.70;;;;;;5489955;26;20237;-83
2024/04/15 08:22:11;;;;;;;8.03;2.30;;;12.60;12.60;;;;;;5489510;26;20228;-83
2024/04/15 08:24:36;;;;;;;6.90;2.53;;;12.40;8.00;;;;;;5490960;26;20267;-82
2024/04/15 08:27:03;;;;;;;9.97;2.50;;;12.00;16.20;;;;;;5491064;26;20212;-82
2024/04/15 08:29:28;;;;;;;10.73;2.50;;;11.90;22.40;;;;;;5490509;26;20250;-82
2024/04/15 08:31:54;;;;;;;13.50;2.60;;;11.70;23.70;;;;;;5489313;26;20292;-83
2024/04/15 08:34:20;;;;;;;9.13;2.80;;;11.80;24.30;;;;;;5490604;26;20216;-82
2024/04/15 08:36:45;;;;;;;12.80;3.43;;;11.80;26.10;;;;;;5488059;26;20646;-84
2024/04/15 08:39:12;;;;;;;10.00;2.80;;;11.90;29.60;;;;;;5490545;26;20335;-83
2024/04/15 08:41:48;;;;;;;11.43;3.40;;;12.00;28.70;;;;;;5488115;26;20227;-83
2024/04/15 08:44:18;;;;;;;10.50;2.70;;;12.10;23.10;;;;;;5489398;26;20541;-83
2024/04/15 08:46:46;;;;;;;10.40;3.17;;;12.10;24.00;;;;;;5490823;26;20260;-82
2024/04/15 08:49:13;;;;;;;9.67;2.70;;;12.00;23.60;;;;;;5490841;26;20238;-82
2024/04/15 08:51:39;;;;;;;9.67;2.73;;;12.00;20.40;;;;;;5487811;26;20225;-83
2024/04/15 08:54:05;;;;;;;7.70;2.50;;;12.10;21.50;;;;;;5489879;26;20334;-83
2024/04/15 08:56:33;;;;;;;7.50;2.30;;;12.40;14.10;;;;;;5490534;26;20689;-82
2024/04/15 08:59:00;;;;;;;8.63;2.87;;;12.60;5.50;;;;;;5488906;26;20326;-82
2024/04/15 09:01:26;;;;;;;6.80;2.20;;;12.80;3.50;;;;;;5488476;26;20284;-82
2024/04/15 09:03:52;;;;;;;8.67;2.33;;;12.70;1.00;;;;;;5488701;26;20227;-83
2024/04/15 09:06:20;;;;;;;9.13;2.90;;;12.70;2.70;;;;;;5488442;26;20583;-82
2024/04/15 09:08:45;;;;;;;11.80;2.83;;;12.60;1.00;;;;;;5487808;26;20324;-83
2024/04/15 09:11:14;;;;;;;10.10;2.60;;;12.50;1.00;;;;;;5489383;26;20230;-84
2024/04/15 09:13:40;;;;;;;7.13;2.57;;;12.40;2.90;;;;;;5489707;26;20320;-83
2024/04/15 09:16:08;;;;;;;8.73;2.70;;;12.40;2.30;;;;;;5488154;26;20672;-84
2024/04/15 09:18:34;;;;;;;8.67;2.50;;;12.40;1.00;;;;;;5488205;26;20679;-84
2024/04/15 09:21:00;;;;;;;7.83;2.53;;;12.60;1.00;;;;;;5487170;26;20328;-82
2024/04/15 09:23:26;;;;;;;9.77;2.50;;;12.70;1.00;;;;;;5487743;26;20272;-82
2024/04/15 09:25:51;;;;;;;9.80;2.53;;;12.80;1.00;;;;;;5489256;26;20329;-84
2024/04/15 09:28:17;;;;;;;9.83;3.37;;;12.90;1.00;;;;;;5489747;26;20254;-83
2024/04/15 09:30:44;;;;;;;15.37;3.10;;;12.90;1.00;;;;;;5487338;26;20228;-83
2024/04/15 09:33:12;;;;;;;12.13;4.17;;;12.90;1.00;;;;;;5488089;26;20222;-84
2024/04/15 09:35:38;;;;;;;10.00;3.03;;;13.00;1.00;;;;;;5488198;26;20476;-83
2024/04/15 09:38:07;;;;;;;7.37;2.13;;;12.90;1.00;;;;;;5489943;26;20212;-83
2024/04/15 09:40:36;;;;;;;10.60;3.20;;;12.70;1.00;;;;;;5487257;26;20232;-83
2024/04/15 09:43:02;;;;;;;10.93;2.90;;;12.70;1.00;;;;;;5489539;26;20540;-82
2024/04/15 09:45:29;;;;;;;13.47;3.20;;;12.60;2.10;;;;;;5488292;26;20246;-82
2024/04/15 09:47:56;;;;;;;15.30;2.50;;;12.50;3.80;;;;;;5488852;26;20221;-83
2024/04/15 09:50:23;;;;;;;6.03;2.00;;;12.50;5.40;;;;;;5487878;26;20224;-82
2024/04/15 09:52:56;;;;;;;12.00;2.60;;;12.60;2.60;;;;;;5489635;26;20224;-82
2024/04/15 09:55:33;;;;;;;9.50;2.53;;;12.50;1.00;;;;;;5487669;26;20319;-83
2024/04/15 09:58:04;;;;;;;9.37;3.00;;;12.50;1.00;;;;;;5487514;26;20226;-83
2024/04/15 10:00:30;;;;;;;9.07;2.73;;;12.60;1.00;;;;;;5489093;26;20229;-82
2024/04/15 10:03:13;;;;;;;4.50;2.20;;;12.80;1.00;;;;;;5488977;26;20308;-83
2024/04/15 10:05:40;;;;;;;12.00;2.30;;;12.80;1.00;;;;;;5489770;26;20217;-83
2024/04/15 10:08:07;;;;;;;9.73;2.60;;;12.90;1.00;;;;;;5488988;26;20737;-82
2024/04/15 10:10:34;;;;;;;8.97;2.53;;;12.70;1.00;;;;;;5488987;26;20221;-82
2024/04/15 10:13:03;;;;;;;10.67;2.27;;;12.60;1.00;;;;;;5488556;26;20344;-82
2024/04/15 10:15:30;;;;;;;7.67;2.37;;;12.50;1.00;;;;;;5487193;26;20220;-83
2024/04/15 10:18:04;;;;;;;8.40;2.70;;;12.30;1.00;;;;;;5488541;26;20760;-84
2024/04/15 10:20:46;;;;;;;11.27;2.40;;;12.30;1.00;;;;;;5486476;26;20549;-83
2024/04/15 10:23:17;;;;;;;7.40;2.30;;;12.40;1.00;;;;;;5486798;26;20239;-83
2024/04/15 10:25:43;;;;;;;11.33;3.17;;;12.40;1.00;;;;;;5489217;26;20216;-83
2024/04/15 10:28:09;;;;;;;13.30;2.70;;;12.40;1.00;;;;;;5489283;26;20747;-83
2024/04/15 10:30:36;;;;;;;7.43;3.10;;;12.40;1.00;;;;;;5487519;26;20320;-82
2024/04/15 10:33:05;;;;;;;10.97;2.90;;;12.50;1.00;;;;;;5488555;26;20580;-83
2024/04/15 10:35:40;;;;;;;8.90;3.67;;;12.30;1.00;;;;;;5484024;26;20221;-82
2024/04/15 10:38:07;;;;;;;8.00;3.10;;;12.20;2.50;;;;;;5485765;26;20275;-82
2024/04/15 10:40:37;;;;;;;7.63;3.27;;;12.10;5.80;;;;;;5489016;26;20217;-83
2024/04/15 10:43:05;;;;;;;6.97;3.07;;;12.20;8.20;;;;;;5488538;26;20212;-83
2024/04/15 10:45:31;;;;;;;13.23;3.43;;;12.10;9.50;;;;;;5487114;26;20580;-83
2024/04/15 10:47:57;;;;;;;8.37;3.17;;;12.10;12.00;;;;;;5487128;26;20257;-82
2024/04/15 10:50:23;;;;;;;9.43;3.90;;;12.10;12.90;;;;;;5489211;26;20226;-83
2024/04/15 10:52:50;;;;;;;7.97;3.30;;;12.10;11.10;;;;;;5488404;26;20286;-83
2024/04/15 10:55:16;;;;;;;7.00;3.27;;;12.20;10.80;;;;;;5488271;26;20324;-83
2024/04/15 10:57:42;;;;;;;6.27;3.50;;;12.20;13.40;;;;;;5487012;26;20224;-82
2024/04/15 11:00:12;;;;;;;13.13;4.13;;;12.20;21.70;;;;;;5488841;26;20212;-83
2024/04/15 11:02:40;;;;;;;7.47;4.17;;;12.20;25.60;;;;;;5486772;26;20237;-83
2024/04/15 11:05:07;;;;;;;8.30;3.97;;;12.30;30.90;;;;;;5488345;26;20609;-82
2024/04/15 11:07:33;;;;;;;9.37;3.90;;;12.50;23.30;;;;;;5486506;26;20681;-82
2024/04/15 11:09:59;;;;;;;8.30;4.00;;;12.60;20.60;;;;;;5488247;26;20263;-82
2024/04/15 11:12:25;;;;;;;10.47;3.80;;;12.80;18.50;;;;;;5488324;26;20228;-84
2024/04/15 11:14:55;;;;;;;11.17;4.00;;;12.70;17.40;;;;;;5486736;26;20332;-84
2024/04/15 11:17:22;;;;;;;7.30;3.90;;;12.70;17.00;;;;;;5485402;26;20255;-84
2024/04/15 11:20:08;;;;;;;10.47;3.27;;;12.70;16.60;;;;;;5487516;26;20218;-83
2024/04/15 11:22:35;;;;;;;7.53;3.40;;;12.70;16.90;;;;;;5485064;26;20224;-83
2024/04/15 11:25:02;;;;;;;7.07;3.03;;;12.80;19.10;;;;;;5487475;26;20325;-83
2024/04/15 11:27:33;;;;;;;7.53;2.73;;;12.80;17.90;;;;;;5488204;26;20624;-83
2024/04/15 11:30:01;;;;;;;8.57;3.30;;;12.90;17.90;;;;;;5486264;26;20557;-83
2024/04/15 11:32:27;;;;;;;6.67;3.37;;;12.80;23.60;;;;;;5486446;26;20233;-84
2024/04/15 11:34:57;;;;;;;5.93;2.67;;;12.70;21.70;;;;;;5488098;26;20216;-84
2024/04/15 11:37:23;;;;;;;10.27;2.77;;;12.70;22.90;;;;;;5486011;26;20681;-83
2024/04/15 11:39:50;;;;;;;6.57;2.50;;;12.60;22.30;;;;;;5487934;26;20591;-83
2024/04/15 11:42:16;;;;;;;9.00;2.50;;;12.70;20.40;;;;;;5487613;26;20541;-84
2024/04/15 11:44:42;;;;;;;8.73;2.23;;;12.70;18.00;;;;;;5485952;26;20320;-82
2024/04/15 11:47:15;;;;;;;7.90;2.33;;;12.70;21.90;;;;;;5487354;26;20232;-85
2024/04/15 11:49:41;;;;;;;7.87;2.57;;;12.60;27.70;;;;;;5488261;26;20272;-83
2024/04/15 11:52:08;;;;;;;9.63;2.27;;;12.50;32.80;;;;;;5487191;26;20217;-83
2024/04/15 11:54:36;;;;;;;8.13;2.00;;;12.50;41.80;;;;;;5485928;26;20275;-83
2024/04/15 11:57:02;;;;;;;3.80;1.50;;;12.60;44.00;;;;;;5488296;26;20217;-83
2024/04/15 11:59:27;;;;;;;5.67;1.63;;;12.50;40.50;;;;;;5487710;26;20402;-82
2024/04/15 12:01:57;;;;;;;5.53;1.93;;;12.60;35.90;;;;;;5487734;26;20544;-82
2024/04/15 12:04:24;;;;;;;4.70;1.33;;;12.60;25.20;;;;;;5485856;26;20670;-83
2024/04/15 12:06:50;;;;;;;10.20;1.90;;;12.70;26.30;;;;;;5485407;26;20228;-82
2024/04/15 12:09:18;;;;;;;2.93;1.40;;;12.60;43.30;;;;;;5485503;26;20698;-83
2024/04/15 12:11:44;;;;;;;3.90;1.43;;;12.40;51.30;;;;;;5487716;26;20589;-84
2024/04/15 12:14:09;;;;;;;4.77;1.33;;;12.30;57.10;;;;;;5487004;26;20228;-84
2024/04/15 12:16:35;;;;;;;5.83;1.80;;;12.40;60.40;;;;;;5487569;26;20579;-84
2024/04/15 12:19:00;;;;;;;4.23;1.50;;;12.50;51.90;;;;;;5487626;26;20428;-83
2024/04/15 12:21:26;;;;;;;3.80;1.10;;;12.70;51.70;;;;;;5485661;26;20653;-83
2024/04/15 12:23:52;;;;;;;2.87;1.00;;;12.80;42.00;;;;;;5485932;26;20263;-83
2024/04/15 12:26:18;;;;;;;4.70;1.43;;;12.80;34.10;;;;;;5488193;26;20279;-83
2024/04/15 12:28:43;;;;;;;4.47;1.20;;;12.80;31.40;;;;;;5488101;26;20218;-83
2024/04/15 12:31:11;;;;;;;4.77;1.20;;;12.90;33.90;;;;;;5487750;26;20592;-83
2024/04/15 12:33:37;;;;;;;5.40;1.50;;;12.90;38.90;;;;;;5486124;26;20286;-84
2024/04/15 12:36:03;;;;;;;2.77;1.30;;;12.70;52.90;;;;;;5485510;26;20224;-85
2024/04/15 12:38:29;;;;;;;3.97;1.40;;;12.60;68.40;;;;;;5485758;26;20285;-84
2024/04/15 12:40:55;;;;;;;9.00;1.90;;;12.50;77.60;;;;;;5484887;26;20224;-83
2024/04/15 12:43:20;;;;;;;6.83;1.70;;;12.30;87.40;;;;;;5486011;26;20256;-82